Filley, Nebraska
Current Conditions -  °F | °C
As of 7:55 AM on Thursday 30 Oct 2014 (Local Time) from KBIE Reporting Station
Clear Clear  
Wind Chill: 31°   Ceiling: Unl
Heat Index: 36°   Visibility: 10mi
Dew Point: 34°   Wind: 6mph
Humidity: 92%   Direction: 320°NW
Pressure: 30.05"   Gusts: NA
Location:  40.29°N, 96.54°W
Report Text: KBIE 301255Z AUTO 32005KT 10SM CLR 02/01 A3005 RMK AO2 T00230011
Loading
Personal Weather Stations






























Interactive Weather Map
Tropical Storm Tracking
New forecast layout! Learn more

10-Day Weather Forecast

Advertisements
Track Severe Weather on mobile